sensor_id;sensor_type;location;lat;lon;timestamp;pressure;altitude;pressure_sealevel;temperature;humidity
76815;BME280;65768;49.906;19.384;2023-03-21T00:01:13;98257.64;;;7.94;94.44
76815;BME280;65768;49.906;19.384;2023-03-21T00:03:42;98256.52;;;7.88;94.34
76815;BME280;65768;49.906;19.384;2023-03-21T00:06:11;98254.21;;;7.83;95.08
76815;BME280;65768;49.906;19.384;2023-03-21T00:08:40;98250.16;;;7.78;95.94
76815;BME280;65768;49.906;19.384;2023-03-21T00:11:09;98248.41;;;7.76;95.82
76815;BME280;65768;49.906;19.384;2023-03-21T00:13:39;98251.20;;;7.77;95.85
76815;BME280;65768;49.906;19.384;2023-03-21T00:16:15;98246.35;;;7.79;95.89
76815;BME280;65768;49.906;19.384;2023-03-21T00:18:48;98238.39;;;7.79;95.86
76815;BME280;65768;49.906;19.384;2023-03-21T00:21:22;98234.73;;;7.79;95.12
76815;BME280;65768;49.906;19.384;2023-03-21T00:23:55;98235.30;;;7.82;95.85
76815;BME280;65768;49.906;19.384;2023-03-21T00:26:24;98228.15;;;7.81;95.46
76815;BME280;65768;49.906;19.384;2023-03-21T00:28:53;98227.81;;;7.81;95.35
76815;BME280;65768;49.906;19.384;2023-03-21T00:31:21;98227.63;;;7.81;95.57
76815;BME280;65768;49.906;19.384;2023-03-21T00:33:50;98221.55;;;7.80;95.14
76815;BME280;65768;49.906;19.384;2023-03-21T00:36:19;98221.94;;;7.82;96.06
76815;BME280;65768;49.906;19.384;2023-03-21T00:38:48;98223.13;;;7.81;95.55
76815;BME280;65768;49.906;19.384;2023-03-21T00:41:17;98219.30;;;7.81;95.36
76815;BME280;65768;49.906;19.384;2023-03-21T00:43:45;98219.80;;;7.79;95.12
76815;BME280;65768;49.906;19.384;2023-03-21T00:46:14;98219.61;;;7.77;95.54
76815;BME280;65768;49.906;19.384;2023-03-21T00:48:42;98217.02;;;7.78;95.25
76815;BME280;65768;49.906;19.384;2023-03-21T00:51:13;98219.31;;;7.81;95.14
76815;BME280;65768;49.906;19.384;2023-03-21T00:53:46;98216.73;;;7.82;94.92
76815;BME280;65768;49.906;19.384;2023-03-21T00:56:14;98218.46;;;7.82;95.41
76815;BME280;65768;49.906;19.384;2023-03-21T00:58:43;98217.61;;;7.84;95.68
76815;BME280;65768;49.906;19.384;2023-03-21T01:01:11;98219.58;;;7.89;95.56
76815;BME280;65768;49.906;19.384;2023-03-21T01:03:40;98221.17;;;7.92;95.85
76815;BME280;65768;49.906;19.384;2023-03-21T01:06:18;98221.54;;;7.94;95.71
76815;BME280;65768;49.906;19.384;2023-03-21T01:08:47;98216.86;;;7.94;95.21
76815;BME280;65768;49.906;19.384;2023-03-21T01:11:18;98216.89;;;7.97;95.19
76815;BME280;65768;49.906;19.384;2023-03-21T01:13:48;98215.34;;;7.99;95.71
76815;BME280;65768;49.906;19.384;2023-03-21T01:16:17;98212.04;;;7.99;95.51
76815;BME280;65768;49.906;19.384;2023-03-21T01:18:45;98214.98;;;7.98;95.55
76815;BME280;65768;49.906;19.384;2023-03-21T01:21:15;98216.90;;;7.99;95.40
76815;BME280;65768;49.906;19.384;2023-03-21T01:23:44;98216.02;;;7.97;95.63
76815;BME280;65768;49.906;19.384;2023-03-21T01:26:13;98221.37;;;7.95;95.82
76815;BME280;65768;49.906;19.384;2023-03-21T01:28:42;98222.18;;;7.91;95.98
76815;BME280;65768;49.906;19.384;2023-03-21T01:31:12;98229.24;;;7.85;96.50
76815;BME280;65768;49.906;19.384;2023-03-21T01:33:42;98230.92;;;7.80;96.24
76815;BME280;65768;49.906;19.384;2023-03-21T01:36:15;98235.59;;;7.79;97.27
76815;BME280;65768;49.906;19.384;2023-03-21T01:38:44;98239.80;;;7.83;98.04
76815;BME280;65768;49.906;19.384;2023-03-21T01:41:29;98240.19;;;7.86;98.70
76815;BME280;65768;49.906;19.384;2023-03-21T01:43:58;98242.11;;;7.87;99.10
76815;BME280;65768;49.906;19.384;2023-03-21T01:46:41;98243.14;;;7.86;99.14
76815;BME280;65768;49.906;19.384;2023-03-21T01:49:22;98239.80;;;7.82;99.48
76815;BME280;65768;49.906;19.384;2023-03-21T01:51:57;98244.29;;;7.80;99.82
76815;BME280;65768;49.906;19.384;2023-03-21T01:54:31;98244.46;;;7.80;99.76
76815;BME280;65768;49.906;19.384;2023-03-21T01:57:04;98246.41;;;7.82;99.85
76815;BME280;65768;49.906;19.384;2023-03-21T02:00:03;98248.09;;;7.78;99.88
76815;BME280;65768;49.906;19.384;2023-03-21T02:02:42;98250.81;;;7.75;99.66
76815;BME280;65768;49.906;19.384;2023-03-21T02:05:21;98248.66;;;7.69;99.87
76815;BME280;65768;49.906;19.384;2023-03-21T02:07:51;98249.82;;;7.63;99.89
76815;BME280;65768;49.906;19.384;2023-03-21T02:10:20;98250.29;;;7.60;100.00
76815;BME280;65768;49.906;19.384;2023-03-21T02:12:48;98254.98;;;7.60;100.00
76815;BME280;65768;49.906;19.384;2023-03-21T02:15:16;98251.14;;;7.59;100.00
76815;BME280;65768;49.906;19.384;2023-03-21T02:18:12;98246.95;;;7.56;100.00
76815;BME280;65768;49.906;19.384;2023-03-21T02:24:09;98242.23;;;7.55;100.00
76815;BME280;65768;49.906;19.384;2023-03-21T02:26:55;98234.91;;;7.52;99.84
76815;BME280;65768;49.906;19.384;2023-03-21T02:44:38;98233.06;;;7.42;99.68
76815;BME280;65768;49.906;19.384;2023-03-21T02:47:15;98225.43;;;7.41;99.50
76815;BME280;65768;49.906;19.384;2023-03-21T02:49:54;98228.15;;;7.38;99.45
76815;BME280;65768;49.906;19.384;2023-03-21T02:52:28;98229.65;;;7.33;99.70
76815;BME280;65768;49.906;19.384;2023-03-21T02:54:57;98226.65;;;7.29;99.57
76815;BME280;65768;49.906;19.384;2023-03-21T02:57:27;98227.83;;;7.26;99.39
76815;BME280;65768;49.906;19.384;2023-03-21T02:59:57;98224.66;;;7.24;99.39
76815;BME280;65768;49.906;19.384;2023-03-21T03:02:47;98227.23;;;7.21;99.23
76815;BME280;65768;49.906;19.384;2023-03-21T03:05:26;98226.30;;;7.16;99.18
76815;BME280;65768;49.906;19.384;2023-03-21T03:08:30;98224.70;;;7.13;99.11
76815;BME280;65768;49.906;19.384;2023-03-21T03:11:25;98224.31;;;7.11;99.25
76815;BME280;65768;49.906;19.384;2023-03-21T03:16:42;98223.89;;;7.05;98.91
76815;BME280;65768;49.906;19.384;2023-03-21T03:19:24;98221.24;;;7.02;98.79
76815;BME280;65768;49.906;19.384;2023-03-21T03:21:58;98222.94;;;7.00;98.65
76815;BME280;65768;49.906;19.384;2023-03-21T03:24:56;98229.16;;;6.99;98.69
76815;BME280;65768;49.906;19.384;2023-03-21T03:27:34;98232.42;;;6.96;98.59
76815;BME280;65768;49.906;19.384;2023-03-21T03:30:07;98239.17;;;6.96;98.90
76815;BME280;65768;49.906;19.384;2023-03-21T03:32:47;98235.34;;;6.95;98.85
76815;BME280;65768;49.906;19.384;2023-03-21T03:35:18;98235.83;;;6.92;98.65
76815;BME280;65768;49.906;19.384;2023-03-21T03:37:53;98235.43;;;6.89;98.97
76815;BME280;65768;49.906;19.384;2023-03-21T03:40:51;98233.33;;;6.87;99.02
76815;BME280;65768;49.906;19.384;2023-03-21T03:43:28;98233.30;;;6.85;99.37
76815;BME280;65768;49.906;19.384;2023-03-21T03:46:07;98225.30;;;6.84;99.31
76815;BME280;65768;49.906;19.384;2023-03-21T03:48:48;98221.61;;;6.81;99.11
76815;BME280;65768;49.906;19.384;2023-03-21T03:51:25;98220.54;;;6.79;99.00
76815;BME280;65768;49.906;19.384;2023-03-21T03:54:00;98208.14;;;6.72;98.68
76815;BME280;65768;49.906;19.384;2023-03-21T03:56:29;98221.55;;;6.76;98.45
76815;BME280;65768;49.906;19.384;2023-03-21T03:59:01;98223.76;;;6.74;98.21
76815;BME280;65768;49.906;19.384;2023-03-21T04:01:32;98221.63;;;6.70;98.49
76815;BME280;65768;49.906;19.384;2023-03-21T04:04:01;98217.77;;;6.66;98.73
76815;BME280;65768;49.906;19.384;2023-03-21T04:06:29;98223.42;;;6.63;98.75
76815;BME280;65768;49.906;19.384;2023-03-21T04:08:57;98223.05;;;6.62;98.81
76815;BME280;65768;49.906;19.384;2023-03-21T04:11:26;98225.13;;;6.62;98.74
76815;BME280;65768;49.906;19.384;2023-03-21T04:13:54;98228.41;;;6.62;98.97
76815;BME280;65768;49.906;19.384;2023-03-21T04:16:22;98226.67;;;6.61;98.68
76815;BME280;65768;49.906;19.384;2023-03-21T04:18:51;98221.82;;;6.60;98.37
76815;BME280;65768;49.906;19.384;2023-03-21T04:21:19;98224.90;;;6.58;98.63
76815;BME280;65768;49.906;19.384;2023-03-21T04:23:49;98221.75;;;6.57;98.66
76815;BME280;65768;49.906;19.384;2023-03-21T04:26:18;98220.34;;;6.55;98.81
76815;BME280;65768;49.906;19.384;2023-03-21T04:28:49;98219.17;;;6.57;98.25
76815;BME280;65768;49.906;19.384;2023-03-21T04:31:17;98215.54;;;6.58;98.20
76815;BME280;65768;49.906;19.384;2023-03-21T04:33:45;98211.85;;;6.55;98.11
76815;BME280;65768;49.906;19.384;2023-03-21T04:36:15;98212.66;;;6.50;97.96
76815;BME280;65768;49.906;19.384;2023-03-21T04:38:53;98212.70;;;6.43;98.16
76815;BME280;65768;49.906;19.384;2023-03-21T04:41:24;98211.70;;;6.35;98.34
76815;BME280;65768;49.906;19.384;2023-03-21T04:43:53;98217.48;;;6.29;98.50
76815;BME280;65768;49.906;19.384;2023-03-21T04:46:22;98224.80;;;6.21;98.75
76815;BME280;65768;49.906;19.384;2023-03-21T04:48:50;98225.75;;;6.16;98.67
76815;BME280;65768;49.906;19.384;2023-03-21T04:51:19;98223.98;;;6.15;98.60
76815;BME280;65768;49.906;19.384;2023-03-21T04:53:47;98221.27;;;6.16;98.91
76815;BME280;65768;49.906;19.384;2023-03-21T04:56:17;98219.06;;;6.20;98.84
76815;BME280;65768;49.906;19.384;2023-03-21T04:58:46;98224.52;;;6.25;98.57
76815;BME280;65768;49.906;19.384;2023-03-21T05:01:14;98223.21;;;6.30;98.74
76815;BME280;65768;49.906;19.384;2023-03-21T05:03:48;98220.14;;;6.32;98.40
76815;BME280;65768;49.906;19.384;2023-03-21T05:06:16;98220.91;;;6.37;98.24
76815;BME280;65768;49.906;19.384;2023-03-21T05:08:46;98216.45;;;6.40;98.32
76815;BME280;65768;49.906;19.384;2023-03-21T05:11:15;98217.73;;;6.42;98.42
76815;BME280;65768;49.906;19.384;2023-03-21T05:13:44;98221.08;;;6.47;98.50
76815;BME280;65768;49.906;19.384;2023-03-21T05:16:13;98220.95;;;6.60;98.09
76815;BME280;65768;49.906;19.384;2023-03-21T05:18:42;98218.65;;;6.68;97.81
76815;BME280;65768;49.906;19.384;2023-03-21T05:21:11;98221.63;;;6.70;97.68
76815;BME280;65768;49.906;19.384;2023-03-21T05:23:39;98219.92;;;6.71;97.79
76815;BME280;65768;49.906;19.384;2023-03-21T05:26:09;98214.27;;;6.77;97.37
76815;BME280;65768;49.906;19.384;2023-03-21T05:28:38;98218.66;;;6.81;97.33
76815;BME280;65768;49.906;19.384;2023-03-21T05:31:07;98220.08;;;6.81;97.36
76815;BME280;65768;49.906;19.384;2023-03-21T05:33:36;98227.00;;;6.82;97.36
76815;BME280;65768;49.906;19.384;2023-03-21T05:36:05;98227.19;;;6.82;97.49
76815;BME280;65768;49.906;19.384;2023-03-21T05:38:33;98229.92;;;6.80;97.79
76815;BME280;65768;49.906;19.384;2023-03-21T05:41:01;98227.15;;;6.80;98.07
76815;BME280;65768;49.906;19.384;2023-03-21T05:43:29;98229.59;;;6.82;98.22
76815;BME280;65768;49.906;19.384;2023-03-21T05:45:57;98223.38;;;6.83;97.90
76815;BME280;65768;49.906;19.384;2023-03-21T05:48:26;98231.70;;;6.84;98.04
76815;BME280;65768;49.906;19.384;2023-03-21T05:50:54;98232.07;;;6.84;98.05
76815;BME280;65768;49.906;19.384;2023-03-21T05:53:22;98229.80;;;6.84;98.07
76815;BME280;65768;49.906;19.384;2023-03-21T05:55:50;98236.98;;;6.90;98.01
76815;BME280;65768;49.906;19.384;2023-03-21T05:58:19;98240.84;;;6.92;97.80
76815;BME280;65768;49.906;19.384;2023-03-21T06:00:48;98240.52;;;6.93;97.43
76815;BME280;65768;49.906;19.384;2023-03-21T06:03:17;98241.27;;;6.96;97.29
76815;BME280;65768;49.906;19.384;2023-03-21T06:05:46;98243.20;;;6.99;97.01
76815;BME280;65768;49.906;19.384;2023-03-21T06:08:15;98242.02;;;7.02;97.00
76815;BME280;65768;49.906;19.384;2023-03-21T06:10:44;98249.88;;;7.04;97.09
76815;BME280;65768;49.906;19.384;2023-03-21T06:13:13;98250.61;;;7.07;96.89
76815;BME280;65768;49.906;19.384;2023-03-21T06:15:43;98251.89;;;7.11;96.25
76815;BME280;65768;49.906;19.384;2023-03-21T06:18:11;98248.52;;;7.18;96.30
76815;BME280;65768;49.906;19.384;2023-03-21T06:20:40;98253.79;;;7.23;95.79
76815;BME280;65768;49.906;19.384;2023-03-21T06:23:09;98254.94;;;7.32;95.74
76815;BME280;65768;49.906;19.384;2023-03-21T06:25:38;98247.08;;;7.39;95.39
76815;BME280;65768;49.906;19.384;2023-03-21T06:28:07;98247.16;;;7.46;95.31
76815;BME280;65768;49.906;19.384;2023-03-21T06:30:36;98247.63;;;7.56;95.34
76815;BME280;65768;49.906;19.384;2023-03-21T06:33:05;98243.94;;;7.65;95.45
76815;BME280;65768;49.906;19.384;2023-03-21T06:35:34;98239.48;;;7.71;94.67
76815;BME280;65768;49.906;19.384;2023-03-21T06:38:03;98242.37;;;7.79;94.86
76815;BME280;65768;49.906;19.384;2023-03-21T06:40:32;98240.70;;;7.86;94.34
76815;BME280;65768;49.906;19.384;2023-03-21T06:43:01;98239.94;;;7.95;93.39
76815;BME280;65768;49.906;19.384;2023-03-21T06:45:29;98245.63;;;8.07;93.53
76815;BME280;65768;49.906;19.384;2023-03-21T06:47:59;98245.71;;;8.15;93.31
76815;BME280;65768;49.906;19.384;2023-03-21T06:50:27;98247.72;;;8.25;92.97
76815;BME280;65768;49.906;19.384;2023-03-21T06:52:56;98245.80;;;8.39;92.60
76815;BME280;65768;49.906;19.384;2023-03-21T06:55:27;98244.27;;;8.61;91.98
76815;BME280;65768;49.906;19.384;2023-03-21T06:57:56;98242.47;;;8.74;90.51
76815;BME280;65768;49.906;19.384;2023-03-21T07:00:25;98240.23;;;9.00;90.15
76815;BME280;65768;49.906;19.384;2023-03-21T07:02:54;98239.05;;;9.06;89.58
76815;BME280;65768;49.906;19.384;2023-03-21T07:05:23;98242.38;;;9.10;88.70
76815;BME280;65768;49.906;19.384;2023-03-21T07:07:52;98242.80;;;9.21;88.68
76815;BME280;65768;49.906;19.384;2023-03-21T07:10:21;98245.48;;;9.33;89.22
76815;BME280;65768;49.906;19.384;2023-03-21T07:12:50;98248.93;;;9.26;88.47
76815;BME280;65768;49.906;19.384;2023-03-21T07:15:18;98251.67;;;9.23;88.49
76815;BME280;65768;49.906;19.384;2023-03-21T07:17:47;98254.48;;;9.24;88.07
76815;BME280;65768;49.906;19.384;2023-03-21T07:20:16;98257.82;;;9.30;88.09
76815;BME280;65768;49.906;19.384;2023-03-21T07:22:46;98258.67;;;9.28;87.53
76815;BME280;65768;49.906;19.384;2023-03-21T07:25:15;98258.16;;;9.30;86.96
76815;BME280;65768;49.906;19.384;2023-03-21T07:27:45;98260.46;;;9.37;87.53
76815;BME280;65768;49.906;19.384;2023-03-21T07:30:15;98256.09;;;9.33;87.11
76815;BME280;65768;49.906;19.384;2023-03-21T07:32:44;98258.91;;;9.37;87.43
76815;BME280;65768;49.906;19.384;2023-03-21T07:35:15;98257.54;;;9.42;87.60
76815;BME280;65768;49.906;19.384;2023-03-21T07:37:44;98251.30;;;9.47;86.86
76815;BME280;65768;49.906;19.384;2023-03-21T07:40:14;98252.02;;;9.55;86.54
76815;BME280;65768;49.906;19.384;2023-03-21T07:42:43;98257.52;;;9.73;86.51
76815;BME280;65768;49.906;19.384;2023-03-21T07:45:11;98249.41;;;9.91;86.79
76815;BME280;65768;49.906;19.384;2023-03-21T07:47:46;98251.86;;;9.97;86.47
76815;BME280;65768;49.906;19.384;2023-03-21T07:50:16;98252.67;;;9.80;84.97
76815;BME280;65768;49.906;19.384;2023-03-21T07:52:46;98262.22;;;9.74;85.94
76815;BME280;65768;49.906;19.384;2023-03-21T07:55:15;98265.44;;;9.57;85.72
76815;BME280;65768;49.906;19.384;2023-03-21T07:57:44;98267.74;;;9.65;85.82
76815;BME280;65768;49.906;19.384;2023-03-21T08:00:14;98270.88;;;9.66;85.64
76815;BME280;65768;49.906;19.384;2023-03-21T08:02:52;98267.35;;;9.54;85.15
76815;BME280;65768;49.906;19.384;2023-03-21T08:05:23;98269.73;;;9.48;85.57
76815;BME280;65768;49.906;19.384;2023-03-21T08:07:53;98271.50;;;9.51;85.30
76815;BME280;65768;49.906;19.384;2023-03-21T08:10:22;98270.25;;;9.45;85.12
76815;BME280;65768;49.906;19.384;2023-03-21T08:12:50;98274.33;;;9.58;85.47
76815;BME280;65768;49.906;19.384;2023-03-21T08:15:20;98271.71;;;9.59;84.88
76815;BME280;65768;49.906;19.384;2023-03-21T08:17:49;98273.83;;;9.62;84.79
76815;BME280;65768;49.906;19.384;2023-03-21T08:20:19;98275.52;;;9.53;85.01
76815;BME280;65768;49.906;19.384;2023-03-21T08:22:49;98282.16;;;9.61;85.24
76815;BME280;65768;49.906;19.384;2023-03-21T08:25:19;98282.60;;;9.78;85.81
76815;BME280;65768;49.906;19.384;2023-03-21T08:27:49;98280.85;;;9.77;84.46
76815;BME280;65768;49.906;19.384;2023-03-21T08:30:21;98277.12;;;9.98;84.67
76815;BME280;65768;49.906;19.384;2023-03-21T08:32:50;98281.26;;;9.88;84.25
76815;BME280;65768;49.906;19.384;2023-03-21T08:35:19;98283.82;;;9.77;84.59
76815;BME280;65768;49.906;19.384;2023-03-21T08:37:48;98284.33;;;9.77;84.80
76815;BME280;65768;49.906;19.384;2023-03-21T08:40:17;98291.55;;;9.92;84.32
76815;BME280;65768;49.906;19.384;2023-03-21T08:42:46;98287.57;;;10.02;83.90
76815;BME280;65768;49.906;19.384;2023-03-21T08:45:16;98290.05;;;10.14;85.24
76815;BME280;65768;49.906;19.384;2023-03-21T08:47:46;98293.12;;;9.97;84.90
76815;BME280;65768;49.906;19.384;2023-03-21T08:50:17;98296.37;;;9.49;85.79
76815;BME280;65768;49.906;19.384;2023-03-21T08:52:47;98302.46;;;9.21;86.55
76815;BME280;65768;49.906;19.384;2023-03-21T08:55:16;98301.45;;;9.04;87.37
76815;BME280;65768;49.906;19.384;2023-03-21T08:57:46;98302.05;;;8.90;88.64
76815;BME280;65768;49.906;19.384;2023-03-21T09:00:16;98312.13;;;8.91;89.79
76815;BME280;65768;49.906;19.384;2023-03-21T09:02:46;98318.05;;;8.73;90.44
76815;BME280;65768;49.906;19.384;2023-03-21T09:05:17;98316.13;;;8.71;91.30
76815;BME280;65768;49.906;19.384;2023-03-21T09:07:46;98321.21;;;8.76;91.71
76815;BME280;65768;49.906;19.384;2023-03-21T09:10:19;98321.55;;;8.76;91.79
76815;BME280;65768;49.906;19.384;2023-03-21T09:12:51;98326.98;;;8.80;92.42
76815;BME280;65768;49.906;19.384;2023-03-21T09:15:22;98321.14;;;8.87;92.91
76815;BME280;65768;49.906;19.384;2023-03-21T09:17:52;98321.80;;;8.85;92.35
76815;BME280;65768;49.906;19.384;2023-03-21T09:20:24;98326.45;;;8.78;92.03
76815;BME280;65768;49.906;19.384;2023-03-21T09:22:58;98328.48;;;8.93;91.49
76815;BME280;65768;49.906;19.384;2023-03-21T09:25:29;98326.56;;;8.91;91.38
76815;BME280;65768;49.906;19.384;2023-03-21T09:27:59;98321.93;;;8.80;91.18
76815;BME280;65768;49.906;19.384;2023-03-21T09:30:30;98325.19;;;8.93;90.88
76815;BME280;65768;49.906;19.384;2023-03-21T09:33:02;98323.50;;;9.00;91.17
76815;BME280;65768;49.906;19.384;2023-03-21T09:35:33;98327.39;;;9.08;90.28
76815;BME280;65768;49.906;19.384;2023-03-21T09:38:03;98327.77;;;9.13;90.72
76815;BME280;65768;49.906;19.384;2023-03-21T09:40:58;98331.27;;;9.14;90.40
76815;BME280;65768;49.906;19.384;2023-03-21T09:46:59;98333.55;;;9.39;90.86
76815;BME280;65768;49.906;19.384;2023-03-21T09:49:38;98328.38;;;9.22;89.61
76815;BME280;65768;49.906;19.384;2023-03-21T09:52:34;98331.42;;;9.09;89.73
76815;BME280;65768;49.906;19.384;2023-03-21T09:55:15;98333.32;;;9.31;90.02
76815;BME280;65768;49.906;19.384;2023-03-21T10:00:36;98331.71;;;9.25;89.23
76815;BME280;65768;49.906;19.384;2023-03-21T10:03:22;98331.17;;;9.23;89.31
76815;BME280;65768;49.906;19.384;2023-03-21T10:05:52;98331.06;;;9.32;88.54
76815;BME280;65768;49.906;19.384;2023-03-21T10:08:31;98328.84;;;9.39;88.81
76815;BME280;65768;49.906;19.384;2023-03-21T10:13:53;98328.30;;;9.35;87.15
76815;BME280;65768;49.906;19.384;2023-03-21T10:16:29;98330.92;;;9.40;87.59
76815;BME280;65768;49.906;19.384;2023-03-21T10:19:03;98333.88;;;9.37;87.33
76815;BME280;65768;49.906;19.384;2023-03-21T10:21:33;98337.72;;;9.39;87.67
76815;BME280;65768;49.906;19.384;2023-03-21T10:24:02;98333.17;;;9.34;87.24
76815;BME280;65768;49.906;19.384;2023-03-21T10:26:31;98339.23;;;9.58;87.37
76815;BME280;65768;49.906;19.384;2023-03-21T10:29:01;98339.04;;;9.53;86.14
76815;BME280;65768;49.906;19.384;2023-03-21T10:31:31;98335.76;;;9.59;86.49
76815;BME280;65768;49.906;19.384;2023-03-21T10:36:54;98336.80;;;9.57;85.75
76815;BME280;65768;49.906;19.384;2023-03-21T10:39:37;98336.13;;;9.36;85.77
76815;BME280;65768;49.906;19.384;2023-03-21T10:42:21;98338.68;;;9.53;86.24
76815;BME280;65768;49.906;19.384;2023-03-21T10:44:54;98338.86;;;9.54;85.30
76815;BME280;65768;49.906;19.384;2023-03-21T10:47:30;98336.15;;;9.67;86.12
76815;BME280;65768;49.906;19.384;2023-03-21T10:50:06;98336.09;;;9.56;86.71
76815;BME280;65768;49.906;19.384;2023-03-21T10:52:42;98334.56;;;9.60;86.10
76815;BME280;65768;49.906;19.384;2023-03-21T10:55:26;98336.02;;;9.71;85.12
76815;BME280;65768;49.906;19.384;2023-03-21T10:58:14;98335.70;;;9.79;85.18
76815;BME280;65768;49.906;19.384;2023-03-21T11:00:46;98339.83;;;9.70;83.92
76815;BME280;65768;49.906;19.384;2023-03-21T11:03:36;98336.73;;;9.75;84.57
76815;BME280;65768;49.906;19.384;2023-03-21T11:06:32;98337.33;;;9.89;85.36
76815;BME280;65768;49.906;19.384;2023-03-21T11:09:13;98338.52;;;9.86;85.00
76815;BME280;65768;49.906;19.384;2023-03-21T11:12:03;98337.29;;;9.81;85.35
76815;BME280;65768;49.906;19.384;2023-03-21T11:14:44;98330.88;;;9.91;84.74
76815;BME280;65768;49.906;19.384;2023-03-21T11:19:51;98331.90;;;9.86;84.04
76815;BME280;65768;49.906;19.384;2023-03-21T11:22:25;98328.91;;;9.80;83.76
76815;BME280;65768;49.906;19.384;2023-03-21T11:24:59;98331.86;;;9.78;84.05
76815;BME280;65768;49.906;19.384;2023-03-21T11:27:30;98330.59;;;9.68;84.82
76815;BME280;65768;49.906;19.384;2023-03-21T11:30:00;98326.71;;;9.91;84.62
76815;BME280;65768;49.906;19.384;2023-03-21T11:32:36;98325.30;;;9.89;84.44
76815;BME280;65768;49.906;19.384;2023-03-21T11:35:13;98328.17;;;9.71;83.63
76815;BME280;65768;49.906;19.384;2023-03-21T11:37:46;98321.40;;;9.75;84.33
76815;BME280;65768;49.906;19.384;2023-03-21T11:40:20;98326.27;;;9.70;83.42
76815;BME280;65768;49.906;19.384;2023-03-21T11:42:52;98322.10;;;9.74;83.69
76815;BME280;65768;49.906;19.384;2023-03-21T11:45:33;98318.33;;;9.87;83.64
76815;BME280;65768;49.906;19.384;2023-03-21T11:48:13;98319.36;;;9.84;82.91
76815;BME280;65768;49.906;19.384;2023-03-21T11:50:46;98319.90;;;9.89;82.48
76815;BME280;65768;49.906;19.384;2023-03-21T11:53:36;98319.39;;;9.90;83.22
76815;BME280;65768;49.906;19.384;2023-03-21T11:56:26;98318.28;;;10.17;83.23
76815;BME280;65768;49.906;19.384;2023-03-21T12:02:25;98307.26;;;10.47;81.79
76815;BME280;65768;49.906;19.384;2023-03-21T12:05:16;98310.21;;;10.42;81.45
76815;BME280;65768;49.906;19.384;2023-03-21T12:08:05;98311.67;;;10.17;80.42
76815;BME280;65768;49.906;19.384;2023-03-21T12:10:49;98305.27;;;10.29;79.77
76815;BME280;65768;49.906;19.384;2023-03-21T12:32:02;98288.44;;;10.46;79.37
76815;BME280;65768;49.906;19.384;2023-03-21T12:37:44;98282.44;;;10.26;77.86
76815;BME280;65768;49.906;19.384;2023-03-21T12:41:01;98280.11;;;10.08;79.33
76815;BME280;65768;49.906;19.384;2023-03-21T12:44:04;98280.43;;;10.04;81.33
76815;BME280;65768;49.906;19.384;2023-03-21T12:49:46;98279.11;;;9.77;82.26
76815;BME280;65768;49.906;19.384;2023-03-21T12:52:27;98271.19;;;9.99;82.62
76815;BME280;65768;49.906;19.384;2023-03-21T12:55:19;98268.77;;;10.03;81.92
76815;BME280;65768;49.906;19.384;2023-03-21T12:58:16;98273.75;;;9.84;81.32
76815;BME280;65768;49.906;19.384;2023-03-21T13:00:51;98273.02;;;9.77;81.40
76815;BME280;65768;49.906;19.384;2023-03-21T13:03:45;98269.38;;;9.77;82.15
76815;BME280;65768;49.906;19.384;2023-03-21T13:06:19;98268.20;;;9.90;82.13
76815;BME280;65768;49.906;19.384;2023-03-21T13:08:58;98269.76;;;9.88;82.30
76815;BME280;65768;49.906;19.384;2023-03-21T13:11:30;98268.04;;;9.89;81.39
76815;BME280;65768;49.906;19.384;2023-03-21T13:14:24;98268.18;;;9.85;80.92
76815;BME280;65768;49.906;19.384;2023-03-21T13:17:14;98263.02;;;10.01;80.09
76815;BME280;65768;49.906;19.384;2023-03-21T13:20:07;98265.84;;;10.12;80.28
76815;BME280;65768;49.906;19.384;2023-03-21T13:22:38;98265.98;;;10.03;80.36
76815;BME280;65768;49.906;19.384;2023-03-21T13:25:22;98263.16;;;9.93;80.06
76815;BME280;65768;49.906;19.384;2023-03-21T13:27:54;98264.38;;;9.94;80.42
76815;BME280;65768;49.906;19.384;2023-03-21T13:30:30;98259.34;;;9.95;80.68
76815;BME280;65768;49.906;19.384;2023-03-21T13:33:21;98257.42;;;9.94;79.66
76815;BME280;65768;49.906;19.384;2023-03-21T13:36:14;98252.52;;;9.89;79.88
76815;BME280;65768;49.906;19.384;2023-03-21T13:38:50;98251.98;;;9.83;80.80
76815;BME280;65768;49.906;19.384;2023-03-21T13:41:42;98255.25;;;9.74;81.20
76815;BME280;65768;49.906;19.384;2023-03-21T13:44:22;98256.23;;;9.61;81.55
76815;BME280;65768;49.906;19.384;2023-03-21T13:47:02;98254.36;;;9.68;81.02
76815;BME280;65768;49.906;19.384;2023-03-21T13:49:37;98253.52;;;9.70;81.35
76815;BME280;65768;49.906;19.384;2023-03-21T13:54:56;98256.30;;;9.41;81.80
76815;BME280;65768;49.906;19.384;2023-03-21T14:00:29;98252.65;;;9.39;81.29
76815;BME280;65768;49.906;19.384;2023-03-21T14:03:00;98253.52;;;9.41;81.82
76815;BME280;65768;49.906;19.384;2023-03-21T14:05:36;98254.70;;;9.33;81.48
76815;BME280;65768;49.906;19.384;2023-03-21T14:08:09;98252.91;;;9.25;82.29
76815;BME280;65768;49.906;19.384;2023-03-21T14:10:47;98255.37;;;9.28;82.03
76815;BME280;65768;49.906;19.384;2023-03-21T14:13:24;98256.70;;;9.20;82.84
76815;BME280;65768;49.906;19.384;2023-03-21T14:16:00;98256.04;;;9.25;83.46
76815;BME280;65768;49.906;19.384;2023-03-21T14:18:47;98252.54;;;9.21;83.30
76815;BME280;65768;49.906;19.384;2023-03-21T14:21:25;98249.89;;;9.15;83.35
76815;BME280;65768;49.906;19.384;2023-03-21T14:23:57;98247.42;;;9.11;83.74
76815;BME280;65768;49.906;19.384;2023-03-21T14:26:29;98245.89;;;9.15;84.07
76815;BME280;65768;49.906;19.384;2023-03-21T14:29:01;98248.85;;;9.17;84.63
76815;BME280;65768;49.906;19.384;2023-03-21T14:31:31;98252.69;;;9.17;85.11
76815;BME280;65768;49.906;19.384;2023-03-21T14:34:01;98248.90;;;9.22;85.05
76815;BME280;65768;49.906;19.384;2023-03-21T14:36:37;98248.87;;;9.19;85.51
76815;BME280;65768;49.906;19.384;2023-03-21T14:39:16;98243.45;;;9.14;85.41
76815;BME280;65768;49.906;19.384;2023-03-21T14:41:53;98244.79;;;9.05;85.91
76815;BME280;65768;49.906;19.384;2023-03-21T14:47:26;98238.48;;;8.98;85.93